Time;durP1;ratioP1;P1;durP2;ratioP2;P2;SDS_P1;SDS_P2;PMS_P1;PMS_P2;Temp;Humidity;BMP_temperature;BMP_pressure;BME280_temperature;BME280_humidity;BME280_pressure;Samples;Min_cycle;Max_cycle;Signal;HPM_P1;HPM_P2
2021/11/06 00:00:32;;;;;;;28.57;15.57;;;10.80;67.30;;;;;;5046466;28;20885;-53
2021/11/06 00:02:57;;;;;;;44.07;16.93;;;10.90;67.00;;;;;;5048547;28;20500;-54
2021/11/06 00:05:24;;;;;;;36.77;15.60;;;10.90;66.90;;;;;;5049585;28;20197;-51
2021/11/06 00:07:49;;;;;;;49.43;16.20;;;11.00;66.60;;;;;;5050137;28;20193;-49
2021/11/06 00:10:15;;;;;;;71.93;15.10;;;11.00;66.10;;;;;;5047206;28;20431;-53
2021/11/06 00:12:41;;;;;;;73.17;15.40;;;11.10;65.90;;;;;;5044281;28;20193;-54
2021/11/06 00:15:10;;;;;;;95.90;18.03;;;10.90;65.70;;;;;;5043305;28;21311;-49
2021/11/06 00:17:37;;;;;;;31.63;14.90;;;10.70;66.50;;;;;;5042415;28;20435;-53
2021/11/06 00:20:04;;;;;;;91.90;18.10;;;10.50;67.10;;;;;;5050749;28;20474;-52
2021/11/06 00:22:31;;;;;;;57.70;16.23;;;10.60;67.00;;;;;;5045448;28;20819;-50
2021/11/06 00:24:57;;;;;;;23.93;15.93;;;10.40;67.30;;;;;;5041700;28;20447;-50
2021/11/06 00:27:23;;;;;;;93.33;19.10;;;10.50;67.80;;;;;;5049367;28;20461;-49
2021/11/06 00:29:48;;;;;;;76.07;19.23;;;10.60;67.20;;;;;;5040608;28;20246;-50
2021/11/06 00:32:14;;;;;;;41.80;17.83;;;10.60;67.20;;;;;;5041020;28;20714;-51
2021/11/06 00:34:39;;;;;;;104.60;21.00;;;10.70;67.20;;;;;;5043985;28;20227;-49
2021/11/06 00:37:05;;;;;;;81.53;22.57;;;10.60;67.00;;;;;;5045249;28;20185;-50
2021/11/06 00:39:31;;;;;;;42.10;19.43;;;10.40;67.60;;;;;;5049141;28;20200;-51
2021/11/06 00:41:56;;;;;;;118.80;21.10;;;10.50;67.80;;;;;;5038422;28;20680;-50
2021/11/06 00:44:22;;;;;;;51.97;20.63;;;10.60;67.10;;;;;;5045326;28;20196;-49
2021/11/06 00:46:49;;;;;;;37.70;19.37;;;10.70;67.10;;;;;;5036662;28;20276;-48
2021/11/06 00:49:14;;;;;;;151.97;24.27;;;10.90;66.80;;;;;;5041083;28;20432;-50
2021/11/06 00:51:40;;;;;;;59.17;20.60;;;10.90;66.10;;;;;;5048723;28;20815;-50
2021/11/06 00:54:06;;;;;;;60.67;20.17;;;10.90;65.80;;;;;;5044548;28;20307;-51
2021/11/06 00:56:31;;;;;;;141.77;21.43;;;10.90;65.60;;;;;;5049785;28;20649;-50
2021/11/06 00:58:57;;;;;;;124.77;21.67;;;10.90;65.60;;;;;;5046126;28;20246;-49
2021/11/06 01:01:22;;;;;;;140.83;21.70;;;10.40;66.00;;;;;;5041883;28;20192;-52
2021/11/06 01:03:48;;;;;;;99.80;19.20;;;10.30;67.20;;;;;;5043299;28;20189;-51
2021/11/06 01:06:14;;;;;;;72.90;18.30;;;10.20;67.40;;;;;;5053486;28;20223;-50
2021/11/06 01:08:40;;;;;;;63.20;19.27;;;10.10;67.80;;;;;;5042175;28;20208;-49
2021/11/06 01:11:05;;;;;;;94.63;19.90;;;10.20;68.00;;;;;;5036357;28;20648;-52
2021/11/06 01:13:31;;;;;;;124.93;20.33;;;10.20;67.90;;;;;;5053008;28;20255;-50
2021/11/06 01:15:57;;;;;;;152.43;22.77;;;10.20;67.70;;;;;;5039008;28;20200;-49
2021/11/06 01:18:23;;;;;;;100.20;21.00;;;10.30;68.10;;;;;;5041997;28;20217;-49
2021/11/06 01:20:48;;;;;;;96.03;18.57;;;10.00;67.90;;;;;;5043160;28;20223;-53
2021/11/06 01:23:14;;;;;;;42.60;14.60;;;9.90;69.60;;;;;;5045758;28;20196;-53
2021/11/06 01:25:39;;;;;;;63.03;19.23;;;9.80;69.80;;;;;;5045887;28;20238;-49
2021/11/06 01:28:06;;;;;;;27.73;16.57;;;9.90;70.00;;;;;;5040670;28;20200;-48
2021/11/06 01:30:32;;;;;;;120.80;18.37;;;10.00;68.50;;;;;;5046904;28;20254;-54
2021/11/06 01:32:57;;;;;;;48.53;16.47;;;10.10;68.00;;;;;;5036945;28;20534;-53
2021/11/06 01:35:24;;;;;;;54.73;17.03;;;9.90;69.50;;;;;;5056269;28;20215;-50
2021/11/06 01:37:49;;;;;;;69.07;17.27;;;10.00;68.50;;;;;;5042471;28;20197;-53
2021/11/06 01:40:17;;;;;;;89.37;17.77;;;10.00;68.10;;;;;;5048854;28;20435;-52
2021/11/06 01:42:44;;;;;;;143.30;19.70;;;9.90;69.00;;;;;;5040928;28;20199;-54
2021/11/06 01:45:14;;;;;;;50.83;14.93;;;9.80;69.50;;;;;;5044727;28;20436;-53
2021/11/06 01:47:39;;;;;;;231.77;21.57;;;9.70;69.80;;;;;;5049379;28;20534;-49
2021/11/06 01:50:07;;;;;;;81.17;15.77;;;9.80;69.50;;;;;;5044295;28;21013;-50
2021/11/06 01:52:33;;;;;;;78.07;15.23;;;9.80;69.70;;;;;;5046556;28;20184;-50
2021/11/06 01:54:59;;;;;;;107.90;16.93;;;9.90;69.10;;;;;;5046519;28;20482;-51
2021/11/06 01:57:27;;;;;;;103.03;15.80;;;9.80;69.10;;;;;;5043360;28;20278;-51
2021/11/06 01:59:53;;;;;;;90.13;16.60;;;9.50;69.80;;;;;;5050227;28;20434;-49
2021/11/06 02:02:19;;;;;;;47.57;18.70;;;9.50;70.40;;;;;;5041596;28;20477;-53
2021/11/06 02:04:45;;;;;;;33.90;15.67;;;9.70;70.30;;;;;;5044012;28;20533;-53
2021/11/06 02:07:11;;;;;;;81.93;15.93;;;10.00;68.50;;;;;;5034635;28;20463;-50
2021/11/06 02:09:37;;;;;;;99.70;14.33;;;10.10;67.90;;;;;;5042384;28;20849;-53
2021/11/06 02:12:03;;;;;;;106.33;15.00;;;9.90;68.80;;;;;;5043259;28;20479;-52
2021/11/06 02:14:29;;;;;;;76.13;14.27;;;9.90;69.10;;;;;;5046780;28;20537;-50
2021/11/06 02:16:54;;;;;;;91.20;14.97;;;9.80;68.90;;;;;;5046195;28;20436;-51
2021/11/06 02:19:32;;;;;;;103.33;13.73;;;9.70;69.40;;;;;;5049713;28;20252;-53
2021/11/06 02:22:00;;;;;;;59.23;13.17;;;9.50;69.60;;;;;;5043073;28;20204;-52
2021/11/06 02:24:27;;;;;;;58.23;13.53;;;8.90;71.50;;;;;;5051450;28;20463;-50
2021/11/06 02:26:53;;;;;;;39.43;11.80;;;9.00;72.30;;;;;;5047315;28;21209;-53
2021/11/06 02:29:19;;;;;;;46.00;11.83;;;9.10;72.00;;;;;;5043972;28;20438;-50
2021/11/06 02:31:45;;;;;;;64.00;13.40;;;9.10;72.00;;;;;;5048043;28;20484;-49
2021/11/06 02:34:11;;;;;;;85.23;13.70;;;9.30;71.00;;;;;;5040573;28;20746;-54
2021/11/06 02:36:38;;;;;;;31.23;11.20;;;9.60;70.50;;;;;;5035159;28;20448;-51
2021/11/06 02:39:04;;;;;;;16.07;10.30;;;9.70;69.60;;;;;;5040750;28;20680;-52
2021/11/06 02:41:30;;;;;;;63.53;13.17;;;9.70;69.30;;;;;;5037836;28;20550;-50
2021/11/06 02:43:58;;;;;;;45.67;11.47;;;9.70;68.90;;;;;;5043282;28;20431;-49
2021/11/06 02:46:24;;;;;;;32.57;11.90;;;9.80;68.90;;;;;;5048001;28;20662;-49
2021/11/06 02:48:50;;;;;;;66.83;13.33;;;9.60;68.90;;;;;;5036489;28;20432;-49
2021/11/06 02:51:15;;;;;;;40.00;12.20;;;9.40;69.50;;;;;;5037142;28;20242;-50
2021/11/06 02:53:41;;;;;;;37.70;11.67;;;9.20;70.70;;;;;;5037351;28;20256;-53
2021/11/06 02:56:06;;;;;;;38.13;11.13;;;9.20;70.90;;;;;;5042566;28;20231;-51
2021/11/06 02:58:32;;;;;;;78.03;11.53;;;9.20;72.00;;;;;;5036741;28;20204;-50
2021/11/06 03:00:59;;;;;;;50.57;11.70;;;9.20;71.00;;;;;;5041977;28;20193;-50
2021/11/06 03:03:25;;;;;;;42.43;14.30;;;9.00;71.70;;;;;;5044538;28;20637;-49
2021/11/06 03:05:50;;;;;;;46.77;10.97;;;9.00;72.20;;;;;;5043702;28;20431;-51
2021/11/06 03:08:16;;;;;;;46.53;11.37;;;9.20;71.70;;;;;;5047291;28;20215;-52
2021/11/06 03:10:42;;;;;;;52.67;11.80;;;9.30;71.40;;;;;;5044620;28;20539;-50
2021/11/06 03:13:08;;;;;;;31.27;11.33;;;9.30;71.40;;;;;;5042234;28;20223;-53
2021/11/06 03:15:34;;;;;;;31.60;11.37;;;9.30;71.10;;;;;;5044684;28;20602;-49
2021/11/06 03:18:00;;;;;;;41.23;11.27;;;9.40;71.30;;;;;;5047444;28;20934;-50
2021/11/06 03:20:25;;;;;;;45.20;11.50;;;9.40;71.30;;;;;;5043950;28;20479;-49
2021/11/06 03:22:57;;;;;;;56.03;10.63;;;9.40;71.40;;;;;;5040868;28;20265;-51
2021/11/06 03:25:22;;;;;;;20.40;10.80;;;9.50;71.30;;;;;;5038763;28;20208;-51
2021/11/06 03:27:48;;;;;;;38.63;14.20;;;9.40;71.20;;;;;;5037998;28;20513;-51
2021/11/06 03:30:14;;;;;;;29.07;12.93;;;9.30;71.60;;;;;;5044131;28;20197;-50
2021/11/06 03:32:40;;;;;;;32.77;12.50;;;9.10;72.30;;;;;;5042663;28;20198;-49
2021/11/06 03:35:07;;;;;;;45.40;13.23;;;8.90;73.90;;;;;;5042733;28;21272;-50
2021/11/06 03:37:33;;;;;;;29.53;12.10;;;8.80;74.30;;;;;;5044364;28;20428;-52
2021/11/06 03:39:58;;;;;;;32.83;12.27;;;8.70;74.70;;;;;;5042688;28;20438;-49
2021/11/06 03:42:24;;;;;;;37.83;13.20;;;8.90;74.80;;;;;;5040475;28;20424;-50
2021/11/06 03:44:50;;;;;;;206.17;19.73;;;9.20;74.40;;;;;;5040398;28;20272;-51
2021/11/06 03:47:15;;;;;;;26.57;12.53;;;9.50;72.70;;;;;;5039590;28;20193;-49
2021/11/06 03:49:41;;;;;;;20.47;12.23;;;9.60;72.20;;;;;;5036642;28;20224;-50
2021/11/06 03:52:07;;;;;;;23.47;13.60;;;9.60;72.20;;;;;;5040983;28;20276;-49
2021/11/06 03:54:32;;;;;;;24.67;12.77;;;9.60;71.80;;;;;;5047363;28;20228;-49
2021/11/06 03:56:58;;;;;;;22.47;11.73;;;9.40;71.70;;;;;;5035312;28;20185;-49
2021/11/06 03:59:24;;;;;;;20.83;13.33;;;9.20;72.00;;;;;;5044135;28;20197;-49
2021/11/06 04:01:50;;;;;;;23.27;13.33;;;9.30;72.90;;;;;;5037279;28;20185;-50
2021/11/06 04:04:16;;;;;;;18.27;13.10;;;9.40;72.40;;;;;;5051521;28;20196;-50
2021/11/06 04:06:41;;;;;;;22.87;12.90;;;9.40;72.20;;;;;;5048507;28;20431;-49
2021/11/06 04:09:07;;;;;;;20.00;13.40;;;9.60;71.60;;;;;;5044041;28;20203;-50
2021/11/06 04:11:33;;;;;;;23.03;13.63;;;9.50;70.90;;;;;;5036821;28;20653;-50
2021/11/06 04:13:58;;;;;;;19.40;12.70;;;9.40;71.00;;;;;;5048890;28;20227;-49
2021/11/06 04:16:24;;;;;;;20.30;13.00;;;9.30;72.20;;;;;;5043151;28;20202;-49
2021/11/06 04:18:50;;;;;;;20.53;12.37;;;9.40;72.40;;;;;;5036122;28;20307;-49
2021/11/06 04:21:15;;;;;;;23.90;13.27;;;9.10;71.50;;;;;;5044394;28;20192;-49
2021/11/06 04:23:41;;;;;;;20.10;12.67;;;9.20;72.80;;;;;;5042145;28;20195;-50
2021/11/06 04:26:07;;;;;;;28.13;12.40;;;9.50;72.10;;;;;;5043645;28;20207;-49
2021/11/06 04:28:33;;;;;;;25.23;14.60;;;9.60;71.10;;;;;;5047913;28;20228;-49
2021/11/06 04:30:59;;;;;;;52.53;14.50;;;9.50;71.00;;;;;;5040579;28;20456;-50
2021/11/06 04:33:24;;;;;;;36.07;13.40;;;9.30;71.40;;;;;;5035908;28;20585;-50
2021/11/06 04:35:50;;;;;;;19.80;11.90;;;9.10;72.10;;;;;;5043411;28;20185;-49
2021/11/06 04:38:15;;;;;;;29.93;13.07;;;9.00;73.50;;;;;;5039498;28;20649;-49
2021/11/06 04:40:41;;;;;;;31.33;13.93;;;9.20;73.30;;;;;;5047688;28;20188;-50
2021/11/06 04:43:07;;;;;;;21.53;13.83;;;9.50;72.70;;;;;;5044030;28;20196;-50
2021/11/06 04:45:33;;;;;;;94.30;17.30;;;9.80;71.90;;;;;;5039836;28;20424;-49
2021/11/06 04:47:59;;;;;;;30.43;13.90;;;10.00;69.60;;;;;;5037305;28;20197;-53
2021/11/06 04:50:24;;;;;;;28.50;13.23;;;10.00;69.30;;;;;;5049171;28;20514;-49
2021/11/06 04:52:50;;;;;;;23.17;12.80;;;10.10;69.00;;;;;;5035769;28;20188;-50
2021/11/06 04:55:16;;;;;;;21.67;13.57;;;10.30;68.70;;;;;;5042076;28;20228;-49
2021/11/06 04:57:43;;;;;;;22.30;13.00;;;10.40;68.20;;;;;;5080427;28;20659;-51
2021/11/06 05:00:12;;;;;;;18.63;12.87;;;10.50;68.00;;;;;;5038785;28;20446;-50
2021/11/06 05:02:38;;;;;;;21.00;13.57;;;10.50;67.50;;;;;;5040008;28;21243;-49
2021/11/06 05:05:05;;;;;;;22.17;12.33;;;10.60;67.20;;;;;;5043518;28;20804;-53
2021/11/06 05:07:31;;;;;;;18.47;12.67;;;10.70;66.90;;;;;;5049973;28;20573;-50
2021/11/06 05:09:56;;;;;;;23.67;13.73;;;10.70;66.30;;;;;;5042840;28;20903;-50
2021/11/06 05:12:23;;;;;;;19.37;12.27;;;10.70;66.10;;;;;;5042942;28;20259;-49
2021/11/06 05:14:50;;;;;;;25.10;12.90;;;10.70;65.90;;;;;;5032926;28;20213;-49
2021/11/06 05:17:17;;;;;;;23.20;14.23;;;10.70;65.40;;;;;;5044146;28;21027;-52
2021/11/06 05:19:43;;;;;;;19.00;12.67;;;10.80;65.40;;;;;;5038446;28;20479;-49
2021/11/06 05:22:10;;;;;;;17.87;12.27;;;10.80;64.90;;;;;;5040890;28;20439;-49
2021/11/06 05:24:36;;;;;;;17.70;11.73;;;10.90;64.70;;;;;;5042533;28;20272;-51
2021/11/06 05:27:02;;;;;;;16.67;11.80;;;10.90;64.20;;;;;;5048863;28;20528;-49
2021/11/06 05:29:28;;;;;;;16.13;11.90;;;10.90;63.80;;;;;;5041014;28;20876;-49
2021/11/06 05:31:53;;;;;;;16.30;11.50;;;10.80;63.60;;;;;;5046712;28;20188;-52
2021/11/06 05:34:19;;;;;;;16.60;11.27;;;10.90;63.60;;;;;;5044418;28;20311;-52
2021/11/06 05:36:44;;;;;;;20.23;13.17;;;10.90;63.20;;;;;;5043116;28;20204;-49
2021/11/06 05:39:10;;;;;;;20.40;12.20;;;10.90;63.20;;;;;;5048057;28;20204;-49
2021/11/06 05:41:36;;;;;;;20.43;12.43;;;10.90;63.20;;;;;;5043123;28;20656;-51
2021/11/06 05:44:02;;;;;;;21.03;12.90;;;10.90;63.20;;;;;;5040340;28;20228;-52
2021/11/06 05:46:28;;;;;;;19.43;13.00;;;10.90;63.00;;;;;;5043089;28;20193;-50
2021/11/06 05:48:54;;;;;;;19.73;12.00;;;10.90;62.80;;;;;;5044738;28;20434;-50
2021/11/06 05:51:19;;;;;;;18.57;11.80;;;11.00;62.80;;;;;;5048688;28;20598;-52
2021/11/06 05:53:45;;;;;;;16.93;11.83;;;10.90;62.80;;;;;;5046710;28;20305;-53
2021/11/06 05:56:10;;;;;;;15.00;10.33;;;10.90;62.70;;;;;;5048421;28;20262;-49
2021/11/06 05:58:36;;;;;;;16.80;11.17;;;10.90;62.80;;;;;;5038137;28;20193;-51
2021/11/06 06:01:02;;;;;;;17.37;11.80;;;11.00;62.70;;;;;;5045989;28;20204;-50
2021/11/06 06:03:27;;;;;;;16.77;11.40;;;10.90;62.50;;;;;;5049169;28;20201;-51
2021/11/06 06:05:53;;;;;;;22.03;12.17;;;10.90;62.50;;;;;;5040110;28;20200;-49
2021/11/06 06:08:19;;;;;;;19.70;12.43;;;11.00;62.40;;;;;;5043452;28;20196;-50
2021/11/06 06:10:45;;;;;;;29.47;14.33;;;11.00;62.30;;;;;;5047101;28;20188;-49
2021/11/06 06:13:10;;;;;;;24.30;13.80;;;11.00;62.40;;;;;;5043498;28;20263;-49
2021/11/06 06:15:36;;;;;;;24.17;12.30;;;11.10;63.20;;;;;;5044311;28;20197;-49
2021/11/06 06:18:02;;;;;;;19.27;10.67;;;11.40;64.30;;;;;;5050996;28;20716;-50
2021/11/06 06:20:28;;;;;;;21.40;13.97;;;11.60;64.30;;;;;;5040436;28;20489;-49
2021/11/06 06:22:54;;;;;;;23.57;13.93;;;11.80;64.10;;;;;;5039427;28;20434;-49
2021/11/06 06:25:19;;;;;;;21.23;12.23;;;11.90;63.60;;;;;;5047954;28;20185;-48
2021/11/06 06:27:45;;;;;;;18.47;11.13;;;12.10;62.70;;;;;;5040259;28;20193;-51
2021/11/06 06:30:14;;;;;;;20.97;13.27;;;12.20;62.20;;;;;;5044348;28;20228;-49
2021/11/06 06:32:39;;;;;;;20.70;12.47;;;12.30;62.10;;;;;;5033605;28;20474;-53
2021/11/06 06:35:06;;;;;;;26.63;12.43;;;12.30;61.10;;;;;;5039500;28;20479;-51
2021/11/06 06:37:32;;;;;;;21.33;11.73;;;12.40;60.70;;;;;;5044503;28;20208;-50
2021/11/06 06:39:58;;;;;;;20.73;13.00;;;12.40;59.90;;;;;;5049691;28;20919;-49
2021/11/06 06:42:24;;;;;;;16.30;11.50;;;12.40;59.50;;;;;;5039377;28;20189;-49
2021/11/06 06:44:53;;;;;;;17.93;11.27;;;12.40;59.50;;;;;;5052700;28;20200;-49
2021/11/06 06:47:19;;;;;;;16.83;11.60;;;12.40;59.20;;;;;;5049882;28;20443;-49
2021/11/06 06:49:46;;;;;;;14.63;10.37;;;12.40;58.80;;;;;;5045031;28;20496;-50
2021/11/06 06:52:13;;;;;;;15.20;11.00;;;12.30;58.60;;;;;;5040558;28;20523;-48
2021/11/06 06:54:39;;;;;;;15.53;11.53;;;12.20;59.00;;;;;;5047712;28;20605;-49
2021/11/06 06:57:05;;;;;;;17.03;10.37;;;12.10;59.10;;;;;;5040260;28;20432;-50
2021/11/06 06:59:33;;;;;;;18.23;9.90;;;12.10;59.60;;;;;;5045343;28;20432;-49
2021/11/06 07:02:03;;;;;;;17.67;11.27;;;12.20;59.60;;;;;;5037926;28;20435;-50
2021/11/06 07:04:29;;;;;;;16.77;12.40;;;12.00;59.30;;;;;;5043917;28;20442;-48
2021/11/06 07:06:54;;;;;;;14.37;10.60;;;12.00;59.40;;;;;;5044469;28;20431;-50
2021/11/06 07:09:20;;;;;;;17.90;11.30;;;12.00;59.30;;;;;;5041163;28;20280;-50
2021/11/06 07:11:47;;;;;;;16.00;10.63;;;12.10;59.00;;;;;;5038676;28;20190;-49
2021/11/06 07:14:15;;;;;;;15.57;10.30;;;12.00;58.90;;;;;;5042734;28;20483;-52
2021/11/06 07:16:40;;;;;;;15.53;9.70;;;12.00;59.20;;;;;;5043470;28;20427;-50
2021/11/06 07:19:06;;;;;;;15.63;10.53;;;12.10;58.90;;;;;;5042353;28;20475;-50
2021/11/06 07:21:32;;;;;;;13.40;9.00;;;12.00;58.70;;;;;;5043787;28;20283;-52
2021/11/06 07:23:57;;;;;;;13.90;10.00;;;11.90;58.70;;;;;;5039829;28;20659;-49
2021/11/06 07:26:23;;;;;;;11.03;8.70;;;12.00;58.90;;;;;;5046462;28;20188;-49
2021/11/06 07:28:48;;;;;;;14.20;9.70;;;12.00;58.80;;;;;;5052428;28;20184;-49
2021/11/06 07:31:15;;;;;;;13.37;8.83;;;12.10;58.90;;;;;;5049572;28;20291;-49
2021/11/06 07:33:42;;;;;;;11.80;8.37;;;12.00;58.40;;;;;;5051651;28;20228;-48
2021/11/06 07:36:09;;;;;;;14.17;9.50;;;11.90;58.70;;;;;;5051525;28;20922;-49
2021/11/06 07:38:35;;;;;;;13.33;9.77;;;11.90;58.60;;;;;;5050463;28;20462;-50
2021/11/06 07:41:01;;;;;;;12.90;9.20;;;12.00;58.70;;;;;;5051331;28;20976;-49
2021/11/06 07:43:26;;;;;;;14.30;10.00;;;12.00;58.80;;;;;;5051577;28;20192;-49
2021/11/06 07:45:52;;;;;;;12.70;9.50;;;12.00;59.00;;;;;;5051128;28;20184;-49
2021/11/06 07:48:17;;;;;;;16.07;11.43;;;12.00;59.10;;;;;;5051949;28;20192;-49
2021/11/06 07:50:43;;;;;;;14.00;8.70;;;11.90;59.30;;;;;;5051334;28;20245;-52
2021/11/06 07:53:09;;;;;;;15.20;9.87;;;11.90;59.10;;;;;;5050810;28;20200;-48
2021/11/06 07:55:35;;;;;;;18.43;10.40;;;11.90;59.20;;;;;;5051172;28;20196;-53
2021/11/06 07:58:01;;;;;;;14.20;9.63;;;12.00;58.80;;;;;;5052024;28;20200;-48
2021/11/06 08:00:27;;;;;;;15.30;10.07;;;11.90;59.10;;;;;;5050982;28;20445;-50
2021/11/06 08:02:52;;;;;;;18.10;9.73;;;11.80;59.40;;;;;;5050851;28;20295;-50
2021/11/06 08:05:18;;;;;;;14.80;10.87;;;11.80;59.50;;;;;;5049350;28;20196;-48
2021/11/06 08:07:44;;;;;;;18.20;10.40;;;11.90;59.40;;;;;;5051163;28;20218;-49
2021/11/06 08:10:10;;;;;;;15.70;10.80;;;11.80;59.20;;;;;;5051080;28;20215;-54
2021/11/06 08:12:41;;;;;;;12.60;9.47;;;11.80;59.60;;;;;;5051074;28;20431;-48
2021/11/06 08:15:09;;;;;;;12.50;10.33;;;11.80;60.00;;;;;;5051141;28;20521;-52
2021/11/06 08:17:34;;;;;;;12.97;9.67;;;11.70;59.00;;;;;;5051240;28;20435;-48
2021/11/06 08:20:00;;;;;;;15.00;10.07;;;11.50;59.10;;;;;;5050719;28;20474;-49
2021/11/06 08:22:26;;;;;;;12.53;9.07;;;11.10;59.90;;;;;;5051098;28;20556;-49
2021/11/06 08:24:52;;;;;;;12.13;9.20;;;10.90;61.30;;;;;;5050791;28;20326;-51
2021/11/06 08:27:17;;;;;;;14.93;10.27;;;11.00;62.00;;;;;;5047637;28;20191;-49
2021/11/06 08:29:43;;;;;;;11.43;9.67;;;11.20;61.40;;;;;;5051437;28;20434;-49
2021/11/06 08:32:08;;;;;;;16.20;9.73;;;11.20;61.60;;;;;;5048067;28;20188;-54
2021/11/06 08:34:34;;;;;;;12.93;9.63;;;11.40;60.70;;;;;;5051314;28;20234;-51
2021/11/06 08:37:00;;;;;;;15.63;11.30;;;11.30;59.70;;;;;;5049725;28;20196;-49
2021/11/06 08:39:27;;;;;;;15.67;9.10;;;11.10;60.30;;;;;;5051293;28;20280;-50
2021/11/06 08:41:55;;;;;;;13.73;10.67;;;11.20;61.40;;;;;;5049839;28;21280;-52
2021/11/06 08:44:22;;;;;;;13.90;10.50;;;11.50;61.00;;;;;;5051421;28;20447;-53
2021/11/06 08:46:50;;;;;;;14.30;10.17;;;11.80;59.90;;;;;;5050932;28;20412;-50
2021/11/06 08:49:16;;;;;;;16.13;11.13;;;11.90;59.40;;;;;;5051027;28;20804;-49
2021/11/06 08:51:47;;;;;;;14.60;11.40;;;12.00;59.20;;;;;;5050005;28;20435;-48
2021/11/06 08:54:15;;;;;;;14.77;10.07;;;12.10;58.60;;;;;;5051066;28;20553;-49
2021/11/06 08:56:42;;;;;;;12.53;10.10;;;11.90;58.60;;;;;;5050149;28;20934;-49
2021/11/06 08:59:08;;;;;;;15.70;11.50;;;11.90;59.00;;;;;;5052887;28;20922;-53
2021/11/06 09:01:34;;;;;;;14.20;11.20;;;12.00;59.30;;;;;;5053865;28;20480;-49
2021/11/06 09:04:00;;;;;;;14.90;11.07;;;12.00;59.20;;;;;;5054450;28;21005;-54
2021/11/06 09:06:26;;;;;;;13.77;11.17;;;12.00;59.00;;;;;;5054343;28;20423;-49
2021/11/06 09:08:52;;;;;;;18.30;12.50;;;11.90;59.20;;;;;;5054674;28;20196;-51
2021/11/06 09:11:19;;;;;;;15.03;11.73;;;12.00;59.00;;;;;;5054178;28;20435;-50
2021/11/06 09:13:53;;;;;;;18.40;12.17;;;12.10;58.70;;;;;;5054647;28;20225;-51
2021/11/06 09:16:19;;;;;;;15.37;12.03;;;11.50;59.50;;;;;;5054077;28;20430;-50
2021/11/06 09:18:45;;;;;;;17.97;12.63;;;11.20;61.10;;;;;;5054641;28;20470;-53
2021/11/06 09:21:12;;;;;;;17.30;11.67;;;11.40;61.50;;;;;;5053913;28;20199;-53
2021/11/06 09:23:38;;;;;;;16.57;12.23;;;11.60;60.60;;;;;;5052118;28;20245;-50
2021/11/06 09:26:04;;;;;;;16.03;11.53;;;11.80;60.00;;;;;;5050484;28;20427;-50
2021/11/06 09:28:37;;;;;;;15.30;12.57;;;12.00;59.70;;;;;;5054610;28;20521;-53
2021/11/06 09:31:03;;;;;;;16.47;11.43;;;12.10;59.60;;;;;;5053900;28;20860;-52
2021/11/06 09:33:29;;;;;;;17.60;12.27;;;12.00;59.50;;;;;;5053823;28;20565;-49
2021/11/06 09:35:54;;;;;;;17.07;12.13;;;12.00;59.30;;;;;;5053596;28;20223;-52
2021/11/06 09:38:20;;;;;;;19.67;14.13;;;12.00;58.70;;;;;;5054181;28;20188;-53
2021/11/06 09:40:45;;;;;;;20.80;15.07;;;12.00;58.70;;;;;;5053779;28;20242;-53
2021/11/06 09:43:15;;;;;;;20.50;15.73;;;11.90;59.40;;;;;;5053791;28;20201;-48
2021/11/06 09:45:41;;;;;;;15.07;12.50;;;12.00;59.30;;;;;;5053061;28;20197;-50
2021/11/06 09:48:06;;;;;;;18.30;13.53;;;12.20;59.20;;;;;;5054185;28;20423;-51
2021/11/06 09:50:32;;;;;;;15.07;12.30;;;12.30;58.90;;;;;;5050970;28;20200;-51
2021/11/06 09:52:58;;;;;;;19.20;14.13;;;12.20;59.00;;;;;;5053395;28;20193;-50
2021/11/06 09:55:24;;;;;;;18.13;13.00;;;12.30;59.20;;;;;;5053224;28;20635;-49
2021/11/06 09:57:51;;;;;;;16.67;12.50;;;12.20;59.00;;;;;;5054038;28;20489;-52
2021/11/06 10:00:20;;;;;;;17.10;13.00;;;12.10;59.00;;;;;;5051541;28;20224;-52
2021/11/06 10:02:46;;;;;;;16.40;11.93;;;12.00;59.60;;;;;;5053540;28;20502;-52
2021/11/06 10:05:12;;;;;;;19.37;15.00;;;11.90;59.30;;;;;;5053191;28;20639;-53
2021/11/06 10:07:39;;;;;;;19.60;13.33;;;12.10;59.70;;;;;;5053989;28;20486;-51
2021/11/06 10:10:11;;;;;;;17.57;13.57;;;12.10;59.40;;;;;;5052416;28;20434;-49
2021/11/06 10:12:45;;;;;;;13.87;11.10;;;11.90;59.40;;;;;;5053163;28;20435;-50
2021/11/06 10:15:11;;;;;;;18.53;13.00;;;12.10;59.60;;;;;;5053037;28;20493;-53
2021/11/06 10:17:37;;;;;;;17.30;13.40;;;12.20;59.50;;;;;;5051656;28;20492;-53
2021/11/06 10:20:41;;;;;;;17.03;12.50;;;12.20;59.40;;;;;;5052489;28;20471;-51
2021/11/06 10:23:07;;;;;;;17.13;12.63;;;11.80;60.90;;;;;;4975848;28;20446;-53
2021/11/06 10:25:34;;;;;;;16.37;13.30;;;11.60;60.50;;;;;;4972298;28;20481;-49
2021/11/06 10:28:09;;;;;;;16.60;12.63;;;11.70;61.00;;;;;;5012584;28;20493;-49
2021/11/06 10:31:01;;;;;;;16.60;12.23;;;11.90;60.40;;;;;;5043289;28;20427;-49
2021/11/06 10:33:26;;;;;;;16.50;12.43;;;12.00;60.00;;;;;;5038430;28;20480;-52
2021/11/06 10:35:52;;;;;;;15.97;13.23;;;12.20;59.90;;;;;;5047601;28;20475;-52
2021/11/06 10:38:24;;;;;;;17.63;13.83;;;12.20;59.00;;;;;;5045268;28;20193;-51
2021/11/06 10:40:56;;;;;;;15.63;13.50;;;12.00;59.80;;;;;;5035730;28;20277;-53
2021/11/06 10:43:25;;;;;;;16.80;13.00;;;12.00;60.40;;;;;;5050803;28;20434;-49
2021/11/06 10:45:59;;;;;;;15.77;11.63;;;11.80;61.10;;;;;;5045999;28;20427;-50
2021/11/06 10:48:31;;;;;;;18.00;13.40;;;11.60;60.70;;;;;;5047523;28;20440;-50
2021/11/06 10:50:59;;;;;;;14.53;12.30;;;11.90;61.70;;;;;;5041570;28;20481;-50
2021/11/06 10:53:33;;;;;;;15.40;12.63;;;12.00;60.80;;;;;;5041001;28;20789;-48
2021/11/06 10:56:01;;;;;;;17.43;12.67;;;12.10;60.50;;;;;;5038145;28;20525;-48
2021/11/06 10:58:29;;;;;;;15.73;12.40;;;12.20;59.70;;;;;;5046493;28;20423;-53
2021/11/06 11:01:07;;;;;;;17.50;13.23;;;12.30;59.60;;;;;;5041254;28;20429;-49
2021/11/06 11:03:40;;;;;;;17.73;13.60;;;12.30;59.50;;;;;;5041528;28;20432;-51
2021/11/06 11:06:10;;;;;;;14.07;11.70;;;12.30;60.50;;;;;;5048442;28;20435;-51
2021/11/06 11:08:50;;;;;;;15.47;12.70;;;12.50;59.50;;;;;;5045152;28;20434;-53
2021/11/06 11:11:19;;;;;;;18.93;13.73;;;12.70;59.00;;;;;;5043049;28;20958;-50
2021/11/06 11:14:00;;;;;;;18.90;13.47;;;12.50;57.70;;;;;;5042600;28;20487;-49
2021/11/06 11:16:27;;;;;;;16.97;12.57;;;12.60;58.70;;;;;;5042542;28;20821;-50
2021/11/06 11:18:54;;;;;;;19.40;14.57;;;12.70;58.60;;;;;;5044665;28;20478;-52
2021/11/06 11:21:26;;;;;;;19.67;16.00;;;12.90;58.50;;;;;;5041624;28;20439;-49
2021/11/06 11:24:05;;;;;;;17.30;13.93;;;13.00;58.10;;;;;;5036025;28;20876;-50
2021/11/06 11:26:36;;;;;;;18.53;14.63;;;13.10;58.00;;;;;;5048408;28;20496;-50
2021/11/06 11:29:05;;;;;;;22.10;16.60;;;13.10;57.80;;;;;;5039339;28;20432;-50
2021/11/06 11:31:32;;;;;;;19.70;15.80;;;13.00;57.90;;;;;;5050091;28;21238;-51
2021/11/06 11:33:58;;;;;;;19.63;15.87;;;12.70;58.30;;;;;;5048217;28;20516;-49
2021/11/06 11:36:30;;;;;;;18.40;14.97;;;12.80;59.10;;;;;;5042518;28;20870;-53
2021/11/06 11:38:56;;;;;;;19.47;14.63;;;12.90;58.70;;;;;;5038593;28;20439;-49
2021/11/06 11:41:44;;;;;;;17.80;15.57;;;12.80;57.60;;;;;;5035416;28;20431;-49
2021/11/06 11:44:34;;;;;;;21.30;16.57;;;13.00;58.30;;;;;;5044131;28;20451;-52
2021/11/06 11:47:13;;;;;;;22.17;16.20;;;13.10;58.30;;;;;;5044272;28;20446;-53
2021/11/06 11:49:44;;;;;;;24.23;16.53;;;13.10;57.90;;;;;;5040920;28;20779;-49
2021/11/06 11:52:25;;;;;;;22.03;16.80;;;12.90;58.20;;;;;;5038083;28;20443;-51
2021/11/06 11:55:05;;;;;;;21.50;16.03;;;13.00;58.40;;;;;;5040681;28;20616;-51
2021/11/06 11:57:32;;;;;;;20.93;16.00;;;12.90;58.50;;;;;;5035272;28;20612;-50
2021/11/06 11:59:58;;;;;;;20.37;16.80;;;13.00;58.60;;;;;;5035724;28;20443;-51
2021/11/06 12:02:27;;;;;;;21.47;17.13;;;13.00;58.30;;;;;;5034629;28;20866;-49
2021/11/06 12:05:14;;;;;;;21.30;16.80;;;13.10;58.10;;;;;;5042971;28;20435;-50
2021/11/06 12:07:41;;;;;;;21.57;17.43;;;13.20;57.90;;;;;;5043921;28;20444;-49
2021/11/06 12:10:27;;;;;;;20.57;15.93;;;13.20;57.90;;;;;;5043490;28;20530;-50
2021/11/06 12:12:54;;;;;;;20.37;16.27;;;13.20;58.00;;;;;;5049595;28;20441;-51
2021/11/06 12:15:20;;;;;;;19.70;16.13;;;13.20;57.90;;;;;;5041395;28;20855;-50
2021/11/06 12:17:46;;;;;;;20.90;17.00;;;13.30;58.10;;;;;;5044919;28;20823;-50
2021/11/06 12:20:25;;;;;;;27.10;18.13;;;13.20;58.10;;;;;;5044326;28;20483;-52
2021/11/06 12:22:51;;;;;;;22.40;17.83;;;13.30;58.00;;;;;;5047179;28;20223;-50
2021/11/06 12:25:22;;;;;;;21.53;18.23;;;13.30;58.10;;;;;;5050484;28;20849;-48
2021/11/06 12:27:54;;;;;;;20.80;17.53;;;13.40;58.00;;;;;;5046249;28;20228;-49
2021/11/06 12:30:26;;;;;;;22.40;17.90;;;13.40;57.80;;;;;;5043651;28;20530;-50